Time;durP1;ratioP1;P1;durP2;ratioP2;P2;SDS_P1;SDS_P2;PMS_P1;PMS_P2;Temp;Humidity;BMP_temperature;BMP_pressure;BME280_temperature;BME280_humidity;BME280_pressure;Samples;Min_cycle;Max_cycle;Signal;HPM_P1;HPM_P2
2021/07/04 00:01:05;;;;;;;6.93;6.23;;;18.60;99.90;;;;;;4986035;28;20171;-71
2021/07/04 00:03:30;;;;;;;6.53;5.93;;;18.50;99.90;;;;;;4974135;28;20715;-72
2021/07/04 00:05:55;;;;;;;6.60;6.00;;;18.50;99.90;;;;;;4973614;28;20165;-72
2021/07/04 00:08:23;;;;;;;7.63;6.93;;;18.60;99.90;;;;;;4973906;28;20573;-70
2021/07/04 00:10:50;;;;;;;6.07;5.47;;;18.60;99.90;;;;;;4973733;28;20188;-71
2021/07/04 00:13:17;;;;;;;7.80;6.43;;;18.60;99.90;;;;;;4973665;28;20452;-71
2021/07/04 00:15:44;;;;;;;5.93;5.33;;;18.60;99.90;;;;;;4973641;28;20417;-71
2021/07/04 00:18:16;;;;;;;6.30;5.77;;;18.60;99.90;;;;;;4973296;28;20435;-72
2021/07/04 00:20:42;;;;;;;7.60;7.00;;;18.60;99.90;;;;;;4973713;28;20446;-70
2021/07/04 00:23:08;;;;;;;7.57;6.40;;;18.60;99.90;;;;;;4973569;28;20410;-70
2021/07/04 00:25:34;;;;;;;5.60;5.03;;;18.60;99.90;;;;;;4973571;28;20754;-70
2021/07/04 00:28:00;;;;;;;7.40;6.10;;;18.60;99.90;;;;;;4973240;28;20444;-70
2021/07/04 00:30:26;;;;;;;6.97;6.27;;;18.60;99.90;;;;;;4973582;28;20901;-71
2021/07/04 00:32:51;;;;;;;7.30;6.53;;;18.60;99.90;;;;;;4973323;28;20203;-70
2021/07/04 00:35:19;;;;;;;10.00;6.87;;;18.60;99.90;;;;;;4973471;28;20184;-72
2021/07/04 00:37:46;;;;;;;7.00;6.40;;;18.60;99.90;;;;;;4973346;28;20563;-72
2021/07/04 00:40:12;;;;;;;7.40;5.93;;;18.60;99.90;;;;;;4990265;28;20421;-70
2021/07/04 00:42:39;;;;;;;8.57;6.37;;;18.60;99.90;;;;;;4992618;28;20900;-70
2021/07/04 00:45:16;;;;;;;7.43;6.73;;;18.60;99.90;;;;;;4998454;28;20426;-71
2021/07/04 00:47:42;;;;;;;6.53;5.93;;;18.60;99.90;;;;;;5012074;28;20464;-70
2021/07/04 00:50:09;;;;;;;7.40;6.70;;;18.60;99.90;;;;;;4994809;28;20766;-70
2021/07/04 00:52:35;;;;;;;6.77;6.03;;;18.60;99.90;;;;;;5008455;28;20603;-70
2021/07/04 00:55:02;;;;;;;6.57;5.90;;;18.70;99.90;;;;;;5004259;28;20414;-69
2021/07/04 00:57:28;;;;;;;6.80;6.27;;;18.70;99.90;;;;;;5010459;28;20393;-70
2021/07/04 00:59:53;;;;;;;7.33;6.63;;;18.70;99.90;;;;;;4992788;28;20411;-71
2021/07/04 01:02:19;;;;;;;7.77;7.00;;;18.60;99.90;;;;;;4957616;28;20207;-70
2021/07/04 01:04:45;;;;;;;6.70;6.17;;;18.60;99.90;;;;;;4972943;28;20174;-70
2021/07/04 01:07:10;;;;;;;6.93;6.03;;;18.60;99.90;;;;;;4973277;28;20414;-70
2021/07/04 01:09:36;;;;;;;7.07;6.47;;;18.60;99.90;;;;;;4972637;28;20868;-71
2021/07/04 01:12:04;;;;;;;6.27;5.67;;;18.60;99.90;;;;;;4972565;28;20209;-70
2021/07/04 01:14:30;;;;;;;7.73;7.03;;;18.60;99.90;;;;;;4972834;28;20579;-70
2021/07/04 01:16:58;;;;;;;6.47;5.90;;;18.60;99.90;;;;;;4984799;28;20798;-71
2021/07/04 01:19:24;;;;;;;7.90;7.13;;;18.60;99.90;;;;;;4991806;28;20865;-71
2021/07/04 01:21:53;;;;;;;8.37;7.10;;;18.60;99.90;;;;;;4992136;28;20461;-71
2021/07/04 01:24:18;;;;;;;7.23;6.53;;;18.60;99.90;;;;;;4992084;28;20425;-72
2021/07/04 01:26:44;;;;;;;8.47;7.77;;;18.60;99.90;;;;;;4992074;28;20419;-71
2021/07/04 01:29:09;;;;;;;7.30;6.30;;;18.70;99.90;;;;;;4991592;28;20223;-70
2021/07/04 01:31:35;;;;;;;8.13;6.47;;;18.60;99.90;;;;;;4974757;28;20230;-71
2021/07/04 01:34:01;;;;;;;9.40;6.97;;;18.60;99.90;;;;;;4991973;28;20170;-71
2021/07/04 01:36:26;;;;;;;7.23;6.53;;;18.60;99.90;;;;;;4992085;28;20237;-71
2021/07/04 01:38:52;;;;;;;8.57;7.67;;;18.60;99.90;;;;;;4991933;28;20200;-71
2021/07/04 01:41:17;;;;;;;9.03;8.10;;;18.60;99.90;;;;;;4991877;28;20182;-70
2021/07/04 01:43:43;;;;;;;7.43;6.73;;;18.60;99.90;;;;;;4992330;28;20174;-71
2021/07/04 01:46:08;;;;;;;7.67;7.07;;;18.60;99.90;;;;;;4991907;28;20183;-70
2021/07/04 01:48:34;;;;;;;9.37;8.37;;;18.70;99.90;;;;;;4991698;28;20199;-71
2021/07/04 01:50:59;;;;;;;7.97;7.17;;;18.60;99.90;;;;;;4991813;28;20180;-71
2021/07/04 01:53:25;;;;;;;9.10;8.30;;;18.60;99.90;;;;;;4982255;28;20173;-71
2021/07/04 01:55:51;;;;;;;7.90;7.03;;;18.60;99.90;;;;;;5003419;28;20534;-70
2021/07/04 01:58:16;;;;;;;8.70;7.80;;;18.60;99.90;;;;;;4985961;28;20221;-70
2021/07/04 02:00:43;;;;;;;7.80;6.60;;;18.60;99.90;;;;;;5002453;28;20172;-71
2021/07/04 02:03:10;;;;;;;7.27;6.57;;;18.60;99.90;;;;;;5011184;28;20178;-73
2021/07/04 02:05:36;;;;;;;6.90;6.30;;;18.50;99.90;;;;;;5011438;28;20411;-70
2021/07/04 02:08:03;;;;;;;9.27;8.27;;;18.50;99.90;;;;;;5011270;28;20429;-70
2021/07/04 02:10:34;;;;;;;8.00;6.47;;;18.50;99.90;;;;;;4993750;28;20993;-71
2021/07/04 02:12:59;;;;;;;7.10;6.50;;;18.50;99.90;;;;;;5011054;28;20514;-72
2021/07/04 02:15:30;;;;;;;7.77;6.90;;;18.50;99.90;;;;;;5011187;28;20937;-71
2021/07/04 02:17:56;;;;;;;8.73;7.27;;;18.50;99.90;;;;;;5010573;28;20285;-71
2021/07/04 02:20:34;;;;;;;8.10;7.37;;;18.50;99.90;;;;;;5003141;28;20443;-71
2021/07/04 02:23:20;;;;;;;7.50;6.90;;;18.50;99.90;;;;;;4993578;28;20417;-71
2021/07/04 02:25:47;;;;;;;7.70;7.00;;;18.50;99.90;;;;;;5002875;28;20422;-71
2021/07/04 02:28:16;;;;;;;9.10;7.20;;;18.40;99.90;;;;;;5005733;28;20474;-71
2021/07/04 02:30:42;;;;;;;7.83;7.13;;;18.40;99.90;;;;;;5011289;28;20408;-71
2021/07/04 02:33:09;;;;;;;7.90;7.17;;;18.40;99.90;;;;;;5010798;28;20492;-72
2021/07/04 02:35:38;;;;;;;6.80;6.20;;;18.40;99.90;;;;;;4989067;28;20443;-71
2021/07/04 02:38:05;;;;;;;6.83;6.23;;;18.40;99.90;;;;;;4984976;28;21317;-71
2021/07/04 02:40:31;;;;;;;6.73;6.13;;;18.30;99.90;;;;;;4991854;28;20493;-71
2021/07/04 02:42:57;;;;;;;7.93;7.17;;;18.30;99.90;;;;;;4987050;28;21097;-72
2021/07/04 02:45:23;;;;;;;7.77;6.97;;;18.30;99.90;;;;;;4998538;28;20182;-72
2021/07/04 02:47:49;;;;;;;6.67;6.07;;;18.30;99.90;;;;;;5014548;28;20690;-72
2021/07/04 02:50:15;;;;;;;7.90;7.13;;;18.30;99.90;;;;;;5014580;28;20906;-72
2021/07/04 02:52:40;;;;;;;7.57;6.87;;;18.30;99.90;;;;;;4996956;28;20568;-71
2021/07/04 02:55:08;;;;;;;7.70;6.90;;;18.20;99.90;;;;;;5005966;28;20172;-71
2021/07/04 02:57:34;;;;;;;7.10;6.40;;;18.20;99.90;;;;;;5011825;28;20170;-71
2021/07/04 02:59:59;;;;;;;8.27;7.47;;;18.20;99.90;;;;;;4994518;28;20468;-71
2021/07/04 03:02:25;;;;;;;8.03;7.23;;;18.20;99.90;;;;;;4976229;28;20435;-70
2021/07/04 03:04:52;;;;;;;9.07;7.80;;;18.30;99.90;;;;;;4975042;28;20176;-71
2021/07/04 03:07:17;;;;;;;8.53;6.50;;;18.30;99.90;;;;;;4974837;28;20412;-71
2021/07/04 03:09:43;;;;;;;7.00;6.40;;;18.30;99.90;;;;;;4983762;28;20946;-72
2021/07/04 03:12:09;;;;;;;7.53;6.83;;;18.30;99.90;;;;;;4994084;28;20206;-71
2021/07/04 03:14:35;;;;;;;7.30;6.60;;;18.30;99.90;;;;;;4994292;28;20176;-71
2021/07/04 03:17:01;;;;;;;7.30;6.60;;;18.30;99.90;;;;;;4994205;28;20411;-71
2021/07/04 03:19:27;;;;;;;7.60;6.80;;;18.30;99.90;;;;;;4994084;28;20208;-71
2021/07/04 03:21:52;;;;;;;7.77;6.97;;;18.30;99.90;;;;;;4994199;28;20219;-71
2021/07/04 03:24:17;;;;;;;8.77;7.70;;;18.30;99.90;;;;;;4994757;28;20174;-72
2021/07/04 03:26:43;;;;;;;7.50;6.80;;;18.30;99.90;;;;;;4993887;28;20651;-72
2021/07/04 03:29:09;;;;;;;9.33;7.90;;;18.30;99.90;;;;;;4994081;28;20240;-71
2021/07/04 03:31:34;;;;;;;8.03;6.97;;;18.40;99.90;;;;;;4993890;28;20258;-71
2021/07/04 03:34:00;;;;;;;8.63;7.00;;;18.40;99.90;;;;;;4994052;28;20191;-72
2021/07/04 03:36:25;;;;;;;7.70;7.00;;;18.40;99.90;;;;;;4993918;28;20196;-71
2021/07/04 03:38:51;;;;;;;7.50;6.50;;;18.40;99.90;;;;;;4993809;28;20192;-71
2021/07/04 03:41:16;;;;;;;7.87;7.07;;;18.40;99.90;;;;;;4993874;28;20263;-72
2021/07/04 03:43:42;;;;;;;7.20;6.50;;;18.40;99.90;;;;;;4993963;28;20165;-72
2021/07/04 03:46:07;;;;;;;6.97;6.33;;;18.50;99.90;;;;;;4993998;28;20558;-71
2021/07/04 03:48:33;;;;;;;7.23;6.70;;;18.50;99.90;;;;;;4993780;28;20188;-71
2021/07/04 03:50:58;;;;;;;7.90;7.10;;;18.50;99.90;;;;;;4993683;28;20590;-72
2021/07/04 03:53:24;;;;;;;9.00;7.83;;;18.60;99.90;;;;;;5000802;28;20276;-71
2021/07/04 03:55:49;;;;;;;7.63;7.03;;;18.60;99.90;;;;;;5005171;28;20246;-72
2021/07/04 03:58:15;;;;;;;7.40;6.70;;;18.70;99.90;;;;;;5013868;28;20242;-72
2021/07/04 04:00:40;;;;;;;9.93;8.47;;;18.80;99.90;;;;;;4995760;28;20529;-70
2021/07/04 04:03:06;;;;;;;8.13;7.37;;;18.80;99.90;;;;;;5013352;28;20544;-70
2021/07/04 04:05:31;;;;;;;8.73;7.93;;;18.90;99.90;;;;;;5013118;28;20174;-70
2021/07/04 04:07:57;;;;;;;7.83;6.80;;;19.00;99.90;;;;;;5012750;28;20223;-71
2021/07/04 04:10:22;;;;;;;8.43;7.60;;;19.10;99.90;;;;;;5012883;28;20180;-70
2021/07/04 04:12:48;;;;;;;8.43;7.63;;;19.10;99.90;;;;;;5012891;28;20237;-70
2021/07/04 04:15:14;;;;;;;8.50;7.70;;;19.10;99.90;;;;;;5013061;28;20171;-70
2021/07/04 04:17:40;;;;;;;8.47;7.77;;;19.30;99.90;;;;;;5012520;28;20188;-71
2021/07/04 04:20:07;;;;;;;8.70;7.80;;;19.40;99.90;;;;;;5012703;28;20682;-71
2021/07/04 04:22:32;;;;;;;7.97;7.27;;;19.40;99.90;;;;;;5012654;28;20494;-71
2021/07/04 04:24:58;;;;;;;8.50;7.80;;;19.50;99.90;;;;;;5012462;28;20497;-70
2021/07/04 04:27:23;;;;;;;10.03;7.87;;;19.60;99.90;;;;;;5012434;28;20278;-72
2021/07/04 04:29:49;;;;;;;12.53;8.70;;;20.00;99.90;;;;;;5012572;28;20579;-71
2021/07/04 04:32:15;;;;;;;7.93;7.17;;;20.20;99.90;;;;;;5012348;28;20707;-72
2021/07/04 04:34:41;;;;;;;8.87;7.50;;;20.20;99.90;;;;;;5012330;28;20178;-71
2021/07/04 04:37:07;;;;;;;8.40;7.70;;;20.20;99.90;;;;;;5012262;28;20969;-70
2021/07/04 04:39:33;;;;;;;8.63;7.77;;;20.10;99.90;;;;;;5012141;28;20565;-70
2021/07/04 04:41:58;;;;;;;8.80;8.10;;;20.00;99.90;;;;;;5012367;28;20210;-70
2021/07/04 04:44:24;;;;;;;9.90;8.10;;;19.80;99.90;;;;;;4994618;28;20638;-72
2021/07/04 04:46:49;;;;;;;8.37;7.43;;;19.70;99.90;;;;;;5012010;28;20185;-71
2021/07/04 04:49:15;;;;;;;10.03;7.50;;;19.60;99.90;;;;;;5012176;28;20288;-72
2021/07/04 04:51:41;;;;;;;7.33;6.53;;;19.50;99.90;;;;;;5011923;28;20206;-71
2021/07/04 04:54:07;;;;;;;8.27;7.57;;;19.50;99.90;;;;;;5002660;28;20178;-72
2021/07/04 04:56:33;;;;;;;9.23;8.40;;;19.50;99.90;;;;;;5009711;28;20759;-71
2021/07/04 04:58:59;;;;;;;12.30;8.90;;;19.30;99.90;;;;;;5011762;28;20432;-71
2021/07/04 05:01:29;;;;;;;8.50;7.80;;;19.30;99.90;;;;;;5011940;28;20441;-71
2021/07/04 05:03:55;;;;;;;9.47;8.70;;;19.20;99.90;;;;;;5011198;28;20180;-71
2021/07/04 05:06:21;;;;;;;9.13;8.33;;;19.20;99.90;;;;;;5011449;28;20496;-71
2021/07/04 05:08:46;;;;;;;9.20;8.40;;;19.30;99.90;;;;;;5011629;28;20863;-70
2021/07/04 05:11:12;;;;;;;8.03;7.23;;;19.30;99.90;;;;;;5011839;28;20179;-71
2021/07/04 05:13:38;;;;;;;8.13;7.47;;;19.40;99.90;;;;;;5011895;28;20260;-71
2021/07/04 05:16:05;;;;;;;9.70;8.80;;;19.50;99.90;;;;;;5011841;28;20199;-71
2021/07/04 05:18:31;;;;;;;8.43;7.70;;;19.50;99.90;;;;;;5011690;28;20450;-72
2021/07/04 05:20:56;;;;;;;10.60;7.90;;;19.50;99.90;;;;;;5011872;28;20571;-71
2021/07/04 05:23:22;;;;;;;9.40;8.33;;;19.50;99.90;;;;;;5011828;28;20270;-71
2021/07/04 05:25:49;;;;;;;7.80;7.00;;;19.50;99.90;;;;;;5011897;28;20688;-71
2021/07/04 05:28:15;;;;;;;8.63;7.80;;;19.60;99.90;;;;;;5011490;28;20200;-71
2021/07/04 05:30:40;;;;;;;8.97;8.10;;;19.60;99.90;;;;;;5011527;28;20470;-71
2021/07/04 05:33:06;;;;;;;9.40;7.83;;;19.70;99.90;;;;;;5011118;28;20991;-72
2021/07/04 05:35:31;;;;;;;8.70;7.90;;;19.60;99.90;;;;;;5011137;28;20228;-72
2021/07/04 05:37:57;;;;;;;10.33;8.93;;;19.70;99.90;;;;;;5010974;28;20356;-70
2021/07/04 05:40:23;;;;;;;8.97;8.07;;;19.90;99.90;;;;;;5011180;28;20175;-71
2021/07/04 05:42:48;;;;;;;9.83;8.80;;;20.10;99.90;;;;;;5011082;28;20174;-71
2021/07/04 05:45:24;;;;;;;9.80;8.77;;;20.30;99.90;;;;;;5011284;28;20268;-72
2021/07/04 05:47:50;;;;;;;9.00;8.20;;;20.30;99.90;;;;;;5010990;28;20192;-71
2021/07/04 05:50:16;;;;;;;9.13;8.37;;;20.30;99.90;;;;;;5011205;28;20835;-72
2021/07/04 05:52:42;;;;;;;9.23;8.33;;;20.60;99.90;;;;;;5007231;28;20457;-70
2021/07/04 05:55:08;;;;;;;9.37;8.40;;;20.70;99.90;;;;;;5002793;28;20554;-72
2021/07/04 05:57:34;;;;;;;9.70;8.80;;;20.90;99.90;;;;;;5010641;28;20669;-69
2021/07/04 05:59:59;;;;;;;8.37;7.37;;;21.40;99.90;;;;;;5011034;28;20408;-71
2021/07/04 06:02:24;;;;;;;9.47;8.60;;;21.70;99.90;;;;;;4993143;28;20188;-71
2021/07/04 06:04:50;;;;;;;8.83;8.03;;;21.70;99.90;;;;;;5010743;28;20222;-71
2021/07/04 06:07:16;;;;;;;9.40;8.50;;;22.20;99.90;;;;;;5010729;28;20613;-71
2021/07/04 06:09:41;;;;;;;8.53;7.73;;;22.60;99.90;;;;;;5010682;28;20178;-72
2021/07/04 06:12:08;;;;;;;8.17;7.57;;;23.10;99.90;;;;;;5010474;28;20284;-71
2021/07/04 06:14:33;;;;;;;7.63;7.03;;;23.50;99.90;;;;;;5011015;28;20178;-71
2021/07/04 06:16:59;;;;;;;8.40;7.40;;;24.10;99.90;;;;;;5013138;28;20428;-71
2021/07/04 06:19:24;;;;;;;9.80;8.43;;;24.60;99.90;;;;;;5014262;28;20213;-71
2021/07/04 06:21:50;;;;;;;9.63;8.00;;;24.40;99.90;;;;;;5014499;28;20646;-70
2021/07/04 06:24:15;;;;;;;8.27;7.50;;;25.10;99.90;;;;;;5014510;28;20179;-71
2021/07/04 06:26:41;;;;;;;6.70;6.10;;;25.50;99.90;;;;;;4996592;28;20172;-70
2021/07/04 06:29:06;;;;;;;8.17;5.90;;;25.30;99.90;;;;;;5013992;28;20216;-69
2021/07/04 06:31:32;;;;;;;6.53;5.97;;;26.00;99.90;;;;;;4996585;28;20201;-70
2021/07/04 06:33:58;;;;;;;6.73;6.13;;;26.30;99.90;;;;;;5014064;28;20637;-71
2021/07/04 06:36:25;;;;;;;5.13;4.73;;;26.00;99.90;;;;;;5014198;28;20195;-71
2021/07/04 06:38:51;;;;;;;5.07;4.67;;;25.70;99.90;;;;;;5013850;28;20497;-70
2021/07/04 06:41:16;;;;;;;5.63;4.67;;;25.20;99.90;;;;;;5013779;28;20973;-70
2021/07/04 06:43:42;;;;;;;5.00;4.60;;;25.20;99.90;;;;;;5013837;28;20525;-70
2021/07/04 06:46:08;;;;;;;5.27;4.80;;;25.70;99.90;;;;;;5013875;28;20568;-70
2021/07/04 06:48:34;;;;;;;5.93;5.43;;;25.50;99.90;;;;;;5013507;28;20421;-71
2021/07/04 06:50:59;;;;;;;5.83;5.17;;;25.30;99.90;;;;;;5013554;28;20233;-71
2021/07/04 06:53:25;;;;;;;4.87;4.50;;;26.50;99.90;;;;;;5010125;28;20225;-71
2021/07/04 06:55:50;;;;;;;5.23;4.70;;;27.10;99.90;;;;;;5005671;28;20530;-70
2021/07/04 06:58:16;;;;;;;6.00;5.50;;;27.00;99.90;;;;;;5013493;28;20188;-71
2021/07/04 07:00:41;;;;;;;6.20;5.53;;;26.30;99.90;;;;;;5013581;28;20168;-70
2021/07/04 07:03:07;;;;;;;5.30;4.80;;;26.60;99.90;;;;;;5013399;28;20251;-71
2021/07/04 07:05:32;;;;;;;5.40;4.93;;;26.40;99.90;;;;;;5013911;28;20233;-69
2021/07/04 07:07:58;;;;;;;4.50;4.10;;;27.90;99.90;;;;;;5013294;28;20184;-69
2021/07/04 07:10:23;;;;;;;5.13;4.63;;;28.20;99.70;;;;;;5014160;28;20222;-70
2021/07/04 07:12:48;;;;;;;7.47;4.00;;;27.70;99.50;;;;;;5013713;28;20290;-70
2021/07/04 07:15:15;;;;;;;4.20;3.80;;;27.80;98.00;;;;;;5014149;28;20251;-70
2021/07/04 07:17:41;;;;;;;3.33;3.10;;;28.70;97.80;;;;;;5013756;28;20207;-71
2021/07/04 07:20:08;;;;;;;3.67;3.37;;;29.30;99.00;;;;;;5013938;28;21600;-72
2021/07/04 07:22:34;;;;;;;3.27;2.97;;;28.80;97.10;;;;;;5013816;28;20187;-70
2021/07/04 07:24:59;;;;;;;3.17;2.80;;;28.80;95.10;;;;;;5013785;28;20403;-70
2021/07/04 07:27:25;;;;;;;2.57;2.30;;;28.70;93.30;;;;;;5012573;28;20179;-71
2021/07/04 07:29:50;;;;;;;3.00;2.70;;;28.30;93.90;;;;;;4996309;28;20176;-71
2021/07/04 07:32:16;;;;;;;3.00;2.80;;;28.70;92.20;;;;;;5013727;28;20613;-71
2021/07/04 07:34:41;;;;;;;5.13;2.80;;;29.30;90.00;;;;;;4996027;28;20208;-70
2021/07/04 07:37:07;;;;;;;3.30;3.00;;;29.70;88.40;;;;;;5013673;28;20252;-70
2021/07/04 07:39:33;;;;;;;3.00;2.33;;;30.10;89.70;;;;;;4996206;28;20579;-70
2021/07/04 07:41:59;;;;;;;3.03;2.60;;;29.80;85.90;;;;;;5013517;28;20411;-70
2021/07/04 07:44:24;;;;;;;2.90;2.30;;;29.80;86.80;;;;;;5013738;28;20164;-70
2021/07/04 07:46:50;;;;;;;2.23;2.03;;;30.00;90.00;;;;;;5013378;28;20251;-70
2021/07/04 07:49:16;;;;;;;2.47;2.27;;;30.20;81.00;;;;;;5013644;28;20180;-71
2021/07/04 07:51:42;;;;;;;3.73;2.70;;;30.60;78.50;;;;;;5011967;28;20542;-71
2021/07/04 07:54:08;;;;;;;3.10;2.90;;;30.00;80.00;;;;;;5001795;28;20475;-70
2021/07/04 07:56:34;;;;;;;3.03;2.73;;;29.60;81.80;;;;;;5011392;28;20407;-70
2021/07/04 07:58:59;;;;;;;3.13;2.90;;;30.40;79.60;;;;;;5013238;28;20184;-70
2021/07/04 08:01:25;;;;;;;8.80;4.43;;;29.50;81.90;;;;;;5013113;28;20176;-70
2021/07/04 08:03:50;;;;;;;3.07;2.80;;;29.90;80.50;;;;;;5013133;28;20640;-70
2021/07/04 08:06:16;;;;;;;3.00;2.80;;;29.30;80.30;;;;;;5013221;28;20195;-72
2021/07/04 08:08:42;;;;;;;4.07;3.17;;;30.70;79.40;;;;;;5012732;28;20184;-70
2021/07/04 08:11:07;;;;;;;3.23;2.90;;;31.80;74.90;;;;;;5012762;28;20386;-70
2021/07/04 08:13:33;;;;;;;3.40;2.97;;;31.30;73.90;;;;;;5012687;28;20223;-70
2021/07/04 08:15:58;;;;;;;3.30;3.10;;;31.40;77.20;;;;;;5013585;28;20168;-72
2021/07/04 08:18:24;;;;;;;3.07;2.80;;;30.30;75.30;;;;;;5014021;28;20181;-70
2021/07/04 08:20:51;;;;;;;3.23;2.93;;;29.50;75.30;;;;;;5013620;28;20250;-70
2021/07/04 08:23:17;;;;;;;3.00;2.80;;;30.20;74.20;;;;;;5000094;28;20541;-70
2021/07/04 08:25:43;;;;;;;3.40;3.10;;;31.20;72.60;;;;;;4993694;28;20416;-70
2021/07/04 08:28:09;;;;;;;3.10;2.90;;;31.60;72.00;;;;;;4991774;28;20442;-70
2021/07/04 08:30:35;;;;;;;2.80;2.60;;;31.50;72.40;;;;;;4993227;28;20235;-70
2021/07/04 08:33:00;;;;;;;2.90;2.70;;;31.00;72.70;;;;;;4991396;28;20205;-70
2021/07/04 08:35:26;;;;;;;3.50;3.20;;;31.50;72.30;;;;;;4992917;28;20687;-70
2021/07/04 08:37:51;;;;;;;3.37;2.90;;;30.30;74.10;;;;;;4992522;28;20193;-69
2021/07/04 08:40:17;;;;;;;3.23;2.93;;;29.40;75.90;;;;;;4991364;28;20223;-70
2021/07/04 08:42:42;;;;;;;3.30;2.70;;;29.40;73.90;;;;;;4992680;28;20269;-70
2021/07/04 08:45:09;;;;;;;3.27;2.97;;;29.20;78.20;;;;;;4991660;28;20527;-69
2021/07/04 08:47:35;;;;;;;3.33;2.60;;;30.50;75.80;;;;;;4992459;28;20211;-70
2021/07/04 08:50:00;;;;;;;2.80;2.60;;;30.20;77.20;;;;;;4992750;28;20408;-70
2021/07/04 08:52:26;;;;;;;3.93;3.30;;;30.20;80.90;;;;;;4992750;28;20452;-70
2021/07/04 08:54:51;;;;;;;3.93;3.63;;;29.50;74.50;;;;;;5003826;28;20283;-70
2021/07/04 08:57:17;;;;;;;3.50;3.20;;;28.70;74.70;;;;;;4998756;28;20172;-70
2021/07/04 08:59:46;;;;;;;3.33;2.93;;;28.80;78.10;;;;;;4973062;28;20687;-71
2021/07/04 09:02:14;;;;;;;3.43;3.13;;;29.00;76.80;;;;;;4971668;28;20271;-70
2021/07/04 09:05:00;;;;;;;3.30;3.03;;;28.50;76.80;;;;;;4973037;28;20421;-71
2021/07/04 09:07:26;;;;;;;3.80;3.30;;;28.60;76.10;;;;;;4973110;28;20396;-70
2021/07/04 09:09:57;;;;;;;5.47;3.30;;;29.10;75.10;;;;;;4972816;28;20413;-69
2021/07/04 09:12:36;;;;;;;3.93;3.10;;;29.30;77.00;;;;;;4972608;28;20448;-69
2021/07/04 09:15:17;;;;;;;5.30;3.30;;;29.30;77.50;;;;;;4972739;28;20408;-71
2021/07/04 09:17:48;;;;;;;3.83;3.53;;;29.90;76.10;;;;;;4973074;28;20428;-71
2021/07/04 09:20:37;;;;;;;3.80;2.90;;;28.50;80.20;;;;;;4972934;28;20422;-72
2021/07/04 09:23:03;;;;;;;5.60;3.53;;;28.80;83.80;;;;;;4972528;28;20499;-72
2021/07/04 09:25:31;;;;;;;3.40;3.20;;;28.00;80.80;;;;;;4990082;28;20462;-70
2021/07/04 09:28:10;;;;;;;4.13;3.73;;;29.20;78.40;;;;;;4991989;28;20427;-70
2021/07/04 09:30:41;;;;;;;4.03;3.73;;;28.70;79.90;;;;;;4973818;28;20416;-72
2021/07/04 09:33:17;;;;;;;4.63;4.03;;;29.00;79.20;;;;;;4994174;28;20889;-74
2021/07/04 09:35:57;;;;;;;3.73;3.43;;;28.70;80.70;;;;;;5010419;28;20434;-71
2021/07/04 09:38:26;;;;;;;3.73;3.43;;;29.10;80.60;;;;;;5011617;28;20437;-69
2021/07/04 09:40:52;;;;;;;4.43;4.00;;;28.70;81.80;;;;;;5011350;28;20503;-70
2021/07/04 09:43:18;;;;;;;8.37;4.33;;;28.30;82.40;;;;;;5011404;28;20514;-70
2021/07/04 09:46:02;;;;;;;3.97;3.47;;;28.30;82.20;;;;;;5011174;28;20418;-69
2021/07/04 09:48:30;;;;;;;4.10;3.70;;;27.90;84.20;;;;;;5011343;28;20472;-70
2021/07/04 09:51:01;;;;;;;3.67;3.40;;;28.30;82.70;;;;;;4999109;28;20789;-70
2021/07/04 09:53:34;;;;;;;4.10;3.80;;;28.40;82.90;;;;;;4976007;28;20460;-69
2021/07/04 09:56:21;;;;;;;4.40;4.00;;;28.30;81.30;;;;;;4976215;28;20413;-70
2021/07/04 09:58:49;;;;;;;3.60;3.30;;;28.60;82.10;;;;;;4986770;28;20501;-70
2021/07/04 10:01:39;;;;;;;4.73;4.27;;;28.80;80.70;;;;;;4995527;28;20463;-70
2021/07/04 10:04:07;;;;;;;3.90;3.50;;;28.30;82.00;;;;;;4995618;28;20405;-69
2021/07/04 10:06:50;;;;;;;3.97;3.67;;;28.10;80.90;;;;;;4995411;28;20724;-70
2021/07/04 10:09:17;;;;;;;3.80;3.27;;;27.70;82.20;;;;;;5002083;28;20895;-69
2021/07/04 10:11:43;;;;;;;4.30;3.90;;;27.80;84.60;;;;;;5006625;28;20456;-69
2021/07/04 10:14:08;;;;;;;4.07;3.63;;;28.40;82.30;;;;;;4997904;28;20486;-70
2021/07/04 10:16:34;;;;;;;4.10;3.80;;;28.20;82.70;;;;;;5010473;28;20928;-70
2021/07/04 10:19:04;;;;;;;4.00;3.53;;;28.20;82.80;;;;;;4995099;28;20185;-70
2021/07/04 10:21:31;;;;;;;4.20;3.77;;;27.40;85.50;;;;;;4995443;28;20161;-70
2021/07/04 10:23:57;;;;;;;4.60;4.27;;;27.50;85.60;;;;;;4995601;28;20411;-70
2021/07/04 10:26:27;;;;;;;6.17;4.03;;;27.60;85.10;;;;;;4995152;28;20491;-70
2021/07/04 10:28:58;;;;;;;4.30;3.90;;;27.70;85.70;;;;;;4994988;28;20944;-70
2021/07/04 10:31:30;;;;;;;4.33;4.03;;;27.70;84.30;;;;;;5000610;28;20411;-70
2021/07/04 10:34:09;;;;;;;4.77;4.37;;;27.60;84.20;;;;;;5014688;28;20915;-70
2021/07/04 10:36:56;;;;;;;4.60;4.30;;;27.50;83.90;;;;;;4996881;28;20406;-70
2021/07/04 10:39:22;;;;;;;4.90;4.40;;;27.70;84.40;;;;;;5014609;28;20414;-70
2021/07/04 10:42:00;;;;;;;4.40;4.10;;;28.10;81.50;;;;;;5014509;28;20961;-69
2021/07/04 10:44:39;;;;;;;4.27;3.97;;;27.80;83.20;;;;;;5014508;28;20468;-70
2021/07/04 10:47:20;;;;;;;5.00;4.60;;;27.20;84.70;;;;;;5010429;28;20432;-70
2021/07/04 10:50:05;;;;;;;4.97;4.40;;;27.10;84.10;;;;;;5003134;28;20401;-70
2021/07/04 10:52:33;;;;;;;5.47;4.57;;;27.10;85.30;;;;;;5001820;28;20997;-70
2021/07/04 10:54:59;;;;;;;4.43;4.03;;;27.60;84.70;;;;;;4994712;28;20412;-70
2021/07/04 10:57:33;;;;;;;4.90;3.93;;;27.90;82.50;;;;;;4994335;28;20412;-70
2021/07/04 10:59:59;;;;;;;4.40;4.00;;;27.90;84.10;;;;;;4981748;28;20251;-70
2021/07/04 11:02:44;;;;;;;4.40;4.00;;;27.30;84.10;;;;;;4993534;28;20925;-70
2021/07/04 11:05:11;;;;;;;4.60;4.30;;;27.30;84.70;;;;;;4994440;28;20192;-70
2021/07/04 11:07:52;;;;;;;4.03;3.73;;;27.40;82.80;;;;;;4994254;28;20427;-70
2021/07/04 11:10:20;;;;;;;4.93;4.10;;;27.30;84.60;;;;;;4994414;28;20442;-70
2021/07/04 11:12:46;;;;;;;4.37;3.83;;;27.20;86.60;;;;;;4994112;28;20444;-70
2021/07/04 11:15:11;;;;;;;4.60;4.30;;;27.70;85.60;;;;;;4994263;28;20420;-70
2021/07/04 11:17:55;;;;;;;4.73;4.33;;;27.60;86.20;;;;;;4994125;28;20436;-70
2021/07/04 11:20:21;;;;;;;5.20;4.80;;;27.70;84.20;;;;;;4994474;28;20171;-70
2021/07/04 11:22:56;;;;;;;4.80;4.27;;;27.50;86.10;;;;;;4973373;28;20467;-70
2021/07/04 11:25:23;;;;;;;5.07;4.67;;;27.40;86.50;;;;;;4988514;28;20426;-71
2021/07/04 11:28:16;;;;;;;3.90;3.50;;;27.60;85.00;;;;;;4993040;28;20446;-71
2021/07/04 11:30:47;;;;;;;4.50;4.10;;;26.70;87.90;;;;;;5004689;28;20735;-72
2021/07/04 11:33:28;;;;;;;4.03;3.73;;;26.90;88.80;;;;;;5014041;28;20460;-70
2021/07/04 11:35:59;;;;;;;6.03;4.33;;;26.90;88.50;;;;;;4998908;28;20809;-71
2021/07/04 11:38:27;;;;;;;4.60;4.20;;;26.90;87.90;;;;;;4994695;28;20425;-71
2021/07/04 11:40:54;;;;;;;4.83;4.43;;;26.90;88.60;;;;;;4994048;28;20506;-70
2021/07/04 11:43:22;;;;;;;5.53;5.03;;;27.10;88.30;;;;;;4994047;28;20538;-71
2021/07/04 11:45:54;;;;;;;4.57;4.27;;;27.00;88.50;;;;;;4993990;28;20406;-71
2021/07/04 11:48:22;;;;;;;4.50;4.07;;;26.90;87.60;;;;;;4993839;28;20430;-70
2021/07/04 11:50:52;;;;;;;4.93;4.53;;;26.70;88.00;;;;;;4993780;28;20411;-73
2021/07/04 11:53:19;;;;;;;4.70;4.40;;;26.50;88.50;;;;;;4993831;28;20455;-71
2021/07/04 11:56:03;;;;;;;5.33;4.83;;;26.40;89.60;;;;;;4993905;28;20919;-71
2021/07/04 11:58:30;;;;;;;4.63;4.33;;;26.60;90.00;;;;;;4993622;28;20846;-73
2021/07/04 12:00:57;;;;;;;5.37;4.90;;;27.00;87.90;;;;;;4993595;28;20417;-72
2021/07/04 12:03:25;;;;;;;5.47;4.97;;;26.60;88.40;;;;;;4993626;28;20413;-71
2021/07/04 12:05:52;;;;;;;4.53;4.13;;;26.20;89.40;;;;;;4993476;28;20410;-72
2021/07/04 12:08:18;;;;;;;4.53;4.13;;;26.10;88.60;;;;;;4993375;28;20452;-71
2021/07/04 12:10:51;;;;;;;5.33;4.83;;;26.30;89.30;;;;;;4993457;28;20415;-71
2021/07/04 12:13:16;;;;;;;5.40;4.90;;;26.30;90.10;;;;;;4992845;28;20204;-70
2021/07/04 12:15:47;;;;;;;4.80;4.40;;;26.30;88.10;;;;;;4993311;28;20473;-71
2021/07/04 12:18:14;;;;;;;5.57;5.03;;;26.30;87.70;;;;;;4993301;28;20183;-71
2021/07/04 12:20:40;;;;;;;6.10;5.20;;;26.30;88.10;;;;;;4993376;28;20394;-71
2021/07/04 12:23:07;;;;;;;5.50;4.57;;;26.50;88.20;;;;;;4993130;28;20442;-71
2021/07/04 12:25:38;;;;;;;6.97;5.37;;;26.30;88.20;;;;;;4993202;28;20185;-70
2021/07/04 12:28:05;;;;;;;6.80;4.77;;;26.50;88.00;;;;;;4992901;28;20463;-72
2021/07/04 12:30:32;;;;;;;4.87;4.40;;;26.50;88.20;;;;;;4993132;28;20918;-71
2021/07/04 12:33:26;;;;;;;4.37;3.97;;;26.50;87.50;;;;;;4988266;28;20455;-72
2021/07/04 12:35:56;;;;;;;5.70;5.17;;;26.30;88.10;;;;;;4967477;28;20499;-71
2021/07/04 12:38:28;;;;;;;5.40;4.97;;;26.70;89.20;;;;;;4992615;28;20423;-72
2021/07/04 12:41:09;;;;;;;5.03;4.53;;;26.90;87.40;;;;;;4992775;28;20403;-71
2021/07/04 12:43:40;;;;;;;6.73;5.53;;;27.00;86.90;;;;;;4993076;28;20493;-72
2021/07/04 12:46:18;;;;;;;5.17;4.77;;;27.20;87.60;;;;;;4992709;28;20414;-71
2021/07/04 12:48:46;;;;;;;4.93;4.53;;;27.30;86.20;;;;;;4992670;28;20772;-71